Time;durP1;ratioP1;P1;durP2;ratioP2;P2;SDS_P1;SDS_P2;PMS_P1;PMS_P2;Temp;Humidity;BMP_temperature;BMP_pressure;BME280_temperature;BME280_humidity;BME280_pressure;Samples;Min_cycle;Max_cycle;Signal;HPM_P1;HPM_P2
2022/12/27 00:01:55;;;;;;;25.38;4.95;;;;;;;2.91;100.00;101886.03;4971768;28;20545;-84
2022/12/27 00:04:23;;;;;;;17.05;4.50;;;;;;;2.98;100.00;101884.91;4991455;28;20034;-85
2022/12/27 00:06:49;;;;;;;14.77;4.43;;;;;;;2.96;100.00;101870.56;4960596;28;20040;-84
2022/12/27 00:09:15;;;;;;;20.75;5.75;;;;;;;3.05;100.00;101889.22;4982501;28;20105;-84
2022/12/27 00:11:40;;;;;;;14.63;3.63;;;;;;;2.97;100.00;101866.03;4983693;28;20500;-84
2022/12/27 00:14:06;;;;;;;16.98;4.43;;;;;;;3.11;100.00;101910.66;4994525;28;20031;-84
2022/12/27 00:16:32;;;;;;;14.18;4.50;;;;;;;2.95;100.00;101887.72;4981944;28;20521;-85
2022/12/27 00:18:59;;;;;;;15.20;4.50;;;;;;;3.08;100.00;101910.78;4982095;28;20034;-85
2022/12/27 00:21:24;;;;;;;22.05;4.95;;;;;;;3.08;100.00;101893.63;4999372;28;20041;-84
2022/12/27 00:23:53;;;;;;;21.85;5.68;;;;;;;2.99;100.00;101883.13;4974783;28;20026;-83
2022/12/27 00:26:22;;;;;;;16.83;5.15;;;;;;;2.96;100.00;101885.91;4999982;28;20058;-83
2022/12/27 00:28:48;;;;;;;22.40;5.15;;;;;;;3.09;100.00;101893.59;4999421;28;20033;-84
2022/12/27 00:31:15;;;;;;;16.45;4.80;;;;;;;3.12;100.00;101904.31;4949721;28;20038;-83
2022/12/27 00:33:44;;;;;;;8.70;4.20;;;;;;;3.07;100.00;101898.16;5000443;28;20026;-84
2022/12/27 00:36:13;;;;;;;14.50;4.30;;;;;;;3.04;100.00;101906.38;5000194;28;20141;-84
2022/12/27 00:38:38;;;;;;;13.18;3.60;;;;;;;3.04;100.00;101887.44;4999243;28;20031;-83
2022/12/27 00:41:04;;;;;;;18.42;4.63;;;;;;;3.13;100.00;101914.22;4982803;28;20528;-84
2022/12/27 00:43:30;;;;;;;15.73;4.53;;;;;;;3.02;100.00;101892.00;5017179;28;20367;-84
2022/12/27 00:45:56;;;;;;;16.02;3.60;;;;;;;3.18;100.00;101914.09;4983635;28;20108;-84
2022/12/27 00:48:22;;;;;;;24.17;4.57;;;;;;;3.15;100.00;101906.06;4983397;28;20078;-84
2022/12/27 00:50:48;;;;;;;10.10;3.45;;;;;;;3.17;100.00;101914.13;5000118;28;20038;-85
2022/12/27 00:53:14;;;;;;;23.02;4.78;;;;;;;3.14;100.00;101904.28;5004032;28;20062;-84
2022/12/27 00:55:43;;;;;;;23.08;4.22;;;;;;;3.11;100.00;101907.06;5003619;28;20041;-85
2022/12/27 00:58:09;;;;;;;19.15;4.50;;;;;;;3.18;100.00;101916.78;4987385;28;20389;-84
2022/12/27 01:00:35;;;;;;;9.88;3.75;;;;;;;3.16;100.00;101917.75;5004842;28;20030;-84
2022/12/27 01:03:00;;;;;;;11.52;3.17;;;;;;;3.18;100.00;101924.00;4988897;28;20034;-84
2022/12/27 01:05:26;;;;;;;25.05;4.30;;;;;;;3.29;100.00;101919.13;5002784;28;20050;-84
2022/12/27 01:07:51;;;;;;;23.83;3.80;;;;;;;3.29;100.00;101917.31;5003951;28;20397;-84
2022/12/27 01:10:17;;;;;;;19.75;3.97;;;;;;;3.35;100.00;101921.66;4971176;28;20034;-84
2022/12/27 01:12:42;;;;;;;23.50;4.45;;;;;;;3.29;100.00;101921.84;4988602;28;20042;-83
2022/12/27 01:15:09;;;;;;;15.02;4.25;;;;;;;3.17;100.00;101917.72;4976075;28;20038;-85
2022/12/27 01:17:36;;;;;;;15.25;4.15;;;;;;;3.17;100.00;101919.53;4964325;28;20129;-84
2022/12/27 01:20:03;;;;;;;10.55;3.58;;;;;;;3.17;100.00;101947.47;4968742;28;20104;-85
2022/12/27 01:22:28;;;;;;;11.13;4.50;;;;;;;3.06;100.00;101938.78;4987796;28;20123;-85
2022/12/27 01:24:54;;;;;;;23.65;3.50;;;;;;;3.10;100.00;101949.47;4970576;28;20054;-84
2022/12/27 01:27:19;;;;;;;15.43;4.35;;;;;;;3.08;100.00;101945.94;4971464;28;20117;-84
2022/12/27 01:29:45;;;;;;;9.65;3.60;;;;;;;3.09;100.00;101946.81;4983043;28;20577;-84
2022/12/27 01:32:10;;;;;;;15.30;4.18;;;;;;;3.05;100.00;101950.53;4963057;28;20031;-84
2022/12/27 01:34:35;;;;;;;22.52;4.28;;;;;;;3.01;100.00;101940.75;5001419;28;20034;-84
2022/12/27 01:37:01;;;;;;;27.55;4.50;;;;;;;2.99;100.00;101948.91;5002776;28;20502;-84
2022/12/27 01:39:30;;;;;;;16.88;4.60;;;;;;;3.02;100.00;101951.53;4986434;28;20378;-83
2022/12/27 01:44:42;;;;;;;12.50;3.85;;;;;;;3.04;100.00;101960.47;5003927;28;20038;-84
2022/12/27 01:47:36;;;;;;;21.73;3.60;;;;;;;3.11;100.00;101963.88;5002756;28;20511;-84
2022/12/27 01:50:11;;;;;;;19.70;4.30;;;;;;;3.13;100.00;101968.34;4991540;28;20042;-84
2022/12/27 01:52:45;;;;;;;15.00;4.50;;;;;;;3.22;100.00;101969.00;5002960;28;20035;-84
2022/12/27 01:55:20;;;;;;;18.55;4.65;;;;;;;3.19;100.00;101963.66;5003664;28;20034;-83
2022/12/27 01:57:48;;;;;;;19.38;4.50;;;;;;;3.06;100.00;101936.97;4984840;28;20034;-84
2022/12/27 02:00:14;;;;;;;10.88;3.53;;;;;;;3.00;100.00;101942.59;5002915;28;20046;-84
2022/12/27 02:02:40;;;;;;;14.30;4.25;;;;;;;3.18;100.00;101972.69;4970170;28;20037;-84
2022/12/27 02:05:07;;;;;;;24.00;4.03;;;;;;;3.09;100.00;101971.16;4983978;28;20038;-83
2022/12/27 02:07:54;;;;;;;15.15;3.92;;;;;;;3.03;100.00;101955.13;4987643;28;20371;-84
2022/12/27 02:10:26;;;;;;;18.35;3.72;;;;;;;3.03;100.00;101955.13;4982180;28;20050;-83
2022/12/27 02:12:52;;;;;;;11.35;4.22;;;;;;;3.17;100.00;101989.91;4984044;28;20050;-83
2022/12/27 02:15:17;;;;;;;15.70;3.50;;;;;;;3.11;100.00;101975.59;5001871;28;20062;-84
2022/12/27 02:17:43;;;;;;;14.75;4.05;;;;;;;3.12;100.00;101985.50;4986306;28;20478;-84
2022/12/27 02:20:21;;;;;;;14.15;3.83;;;;;;;3.17;100.00;101992.59;4999624;28;20034;-84
2022/12/27 02:26:20;;;;;;;14.10;4.55;;;;;;;3.30;100.00;101992.16;4996619;28;20027;-85
2022/12/27 02:29:23;;;;;;;18.48;3.65;;;;;;;3.27;100.00;101999.50;4978294;28;20069;-85
2022/12/27 02:32:06;;;;;;;22.13;3.83;;;;;;;3.28;100.00;102002.16;4989210;28;20042;-83
2022/12/27 02:34:50;;;;;;;13.43;3.25;;;;;;;3.26;100.00;101995.00;4978809;28;20031;-85
2022/12/27 02:37:19;;;;;;;13.52;3.38;;;;;;;3.28;100.00;101995.84;5002601;28;20038;-84
2022/12/27 02:39:47;;;;;;;18.98;3.40;;;;;;;3.36;100.00;101990.19;5003180;28;20050;-84
2022/12/27 02:54:08;;;;;;;16.55;4.22;;;;;;;3.33;100.00;101996.63;5002481;28;20038;-85
2022/12/27 02:59:26;;;;;;;16.70;3.78;;;;;;;3.29;100.00;101990.38;4990045;28;20442;-85
2022/12/27 03:05:20;;;;;;;18.65;3.80;;;;;;;3.34;100.00;101990.25;4992140;28;20113;-84
2022/12/27 03:07:54;;;;;;;23.23;3.58;;;;;;;3.34;100.00;101978.53;4981759;28;20038;-84
2022/12/27 03:16:40;;;;;;;20.45;3.78;;;;;;;3.47;100.00;101980.81;5000340;28;20133;-84
2022/12/27 03:27:35;;;;;;;16.40;3.50;;;;;;;3.32;100.00;101978.59;4995407;28;20093;-85
2022/12/27 03:33:12;;;;;;;12.93;3.00;;;;;;;3.44;100.00;101986.34;5003409;28;20030;-86
2022/12/27 03:38:01;;;;;;;17.92;3.33;;;;;;;3.44;100.00;101993.56;4985484;28;20042;-84
2022/12/27 03:38:50;;;;;;;10.48;2.67;;;;;;;3.53;100.00;101993.28;5002530;28;20034;-84
2022/12/27 03:44:26;;;;;;;15.63;2.70;;;;;;;3.62;100.00;102008.34;4950999;28;20052;-83
2022/12/27 03:46:58;;;;;;;15.30;3.95;;;;;;;3.62;100.00;102009.25;4986140;28;20026;-85
2022/12/27 03:49:39;;;;;;;17.17;3.17;;;;;;;3.75;100.00;102020.56;4985745;28;20351;-84
2022/12/27 03:52:12;;;;;;;13.82;3.15;;;;;;;3.77;100.00;102025.94;4997202;28;20030;-85
2022/12/27 03:54:40;;;;;;;10.55;2.70;;;;;;;3.77;100.00;102020.50;5002578;28;20033;-84
2022/12/27 03:57:10;;;;;;;11.95;3.30;;;;;;;3.83;100.00;102032.03;5001212;28;20026;-84
2022/12/27 03:59:36;;;;;;;11.23;2.70;;;;;;;3.72;100.00;102020.66;4977409;28;20049;-85
2022/12/27 04:02:03;;;;;;;16.80;3.03;;;;;;;3.77;100.00;102021.41;4960441;28;20098;-84
2022/12/27 04:04:28;;;;;;;9.43;2.85;;;;;;;3.55;100.00;102004.94;4979585;28;20022;-84
2022/12/27 04:06:54;;;;;;;17.90;4.35;;;;;;;3.73;100.00;102030.56;4985495;28;20057;-84
2022/12/27 04:36:42;;;;;;;17.02;2.28;;;;;;;3.63;100.00;102021.84;4992804;28;20078;-84
2022/12/27 04:39:08;;;;;;;20.95;3.08;;;;;;;3.70;100.00;102032.50;4988859;28;20544;-84
2022/12/27 04:55:13;;;;;;;26.98;3.63;;;;;;;3.45;100.00;102042.25;4993743;28;20034;-83
2022/12/27 04:57:39;;;;;;;20.85;3.47;;;;;;;3.47;100.00;102037.66;4987689;28;20030;-84
2022/12/27 05:02:49;;;;;;;15.02;4.03;;;;;;;3.39;100.00;102030.72;4988400;28;20114;-84
2022/12/27 05:05:15;;;;;;;15.00;2.92;;;;;;;3.43;100.00;102041.41;4988582;28;20061;-85
2022/12/27 05:15:56;;;;;;;19.80;2.67;;;;;;;3.53;100.00;102042.03;5003956;28;20034;-84
2022/12/27 05:18:22;;;;;;;24.73;2.70;;;;;;;3.53;100.00;102051.97;4989341;28;20041;-85
2022/12/27 05:20:47;;;;;;;24.02;2.70;;;;;;;3.58;100.00;102079.78;4984845;28;20100;-85
2022/12/27 05:25:57;;;;;;;16.48;3.05;;;;;;;3.58;100.00;102063.56;4997018;28;20037;-84
2022/12/27 05:28:22;;;;;;;20.23;2.70;;;;;;;3.68;100.00;102075.88;4970694;28;20043;-84
2022/12/27 05:30:48;;;;;;;19.60;3.42;;;;;;;3.63;100.00;102072.41;5005677;28;20035;-83
2022/12/27 05:33:13;;;;;;;22.13;2.90;;;;;;;3.55;100.00;102078.06;4988592;28;20042;-84
2022/12/27 05:35:39;;;;;;;20.42;2.92;;;;;;;3.35;100.00;102054.28;4987478;28;20049;-85
2022/12/27 05:38:05;;;;;;;16.33;2.97;;;;;;;3.56;100.00;102078.94;5004296;28;20170;-84
2022/12/27 05:40:33;;;;;;;14.73;2.58;;;;;;;3.55;100.00;102078.06;5002848;28;20034;-83
2022/12/27 05:42:59;;;;;;;16.80;2.70;;;;;;;3.38;100.00;102065.03;5000479;28;20109;-84
2022/12/27 05:45:26;;;;;;;18.25;2.65;;;;;;;3.31;100.00;102066.13;4972845;28;20492;-85
2022/12/27 05:47:51;;;;;;;20.02;3.28;;;;;;;3.52;100.00;102105.22;5005010;28;20046;-84
2022/12/27 05:50:17;;;;;;;11.40;1.85;;;;;;;3.41;100.00;102081.19;4972081;28;20041;-84
2022/12/27 05:52:43;;;;;;;20.92;3.20;;;;;;;3.50;100.00;102098.97;4986909;28;20030;-84
2022/12/27 05:55:08;;;;;;;16.27;2.60;;;;;;;3.45;100.00;102104.50;4988296;28;20134;-84
2022/12/27 05:57:35;;;;;;;17.77;3.13;;;;;;;3.53;100.00;102114.25;5005098;28;20030;-84
2022/12/27 06:00:02;;;;;;;27.60;3.53;;;;;;;3.41;100.00;102105.56;4987524;28;20125;-84
2022/12/27 06:02:28;;;;;;;8.68;2.80;;;;;;;3.40;100.00;102094.75;5003211;28;20049;-84
2022/12/27 06:04:53;;;;;;;21.15;3.78;;;;;;;3.53;100.00;102109.72;4987413;28;20018;-84
2022/12/27 06:07:19;;;;;;;15.18;3.05;;;;;;;3.66;100.00;102124.66;5000650;28;20046;-84
2022/12/27 06:09:44;;;;;;;23.63;3.63;;;;;;;3.66;100.00;102112.94;4983832;28;20037;-85
2022/12/27 06:12:11;;;;;;;19.20;2.88;;;;;;;3.65;100.00;102124.72;4987440;28;20041;-85
2022/12/27 06:14:36;;;;;;;18.92;2.88;;;;;;;3.62;100.00;102125.69;4997517;28;20046;-84
2022/12/27 06:17:02;;;;;;;17.73;2.60;;;;;;;3.69;100.00;102118.28;4987886;28;20030;-84
2022/12/27 06:19:28;;;;;;;16.83;2.90;;;;;;;3.59;100.00;102106.84;4985984;28;20066;-84
2022/12/27 06:21:53;;;;;;;20.17;2.55;;;;;;;3.54;100.00;102106.06;4963709;28;20057;-83
2022/12/27 06:24:19;;;;;;;20.05;3.03;;;;;;;3.54;100.00;102110.59;4973683;28;20035;-83
2022/12/27 06:26:44;;;;;;;24.98;3.10;;;;;;;3.53;100.00;102119.66;5000818;28;20034;-83
2022/12/27 06:29:13;;;;;;;23.13;2.90;;;;;;;3.37;100.00;102103.84;4994265;28;20054;-84
2022/12/27 06:31:39;;;;;;;13.65;2.70;;;;;;;3.48;100.00;102120.66;4979004;28;20047;-83
2022/12/27 06:34:05;;;;;;;15.30;2.90;;;;;;;3.52;100.00;102132.28;5002565;28;20034;-85
2022/12/27 06:36:32;;;;;;;15.48;2.83;;;;;;;3.52;100.00;102129.59;4985199;28;20038;-85
2022/12/27 06:38:58;;;;;;;16.23;3.38;;;;;;;3.39;100.00;102118.22;4979968;28;20030;-84
2022/12/27 06:41:24;;;;;;;22.45;3.78;;;;;;;3.22;100.00;102102.47;4986275;28;20037;-84
2022/12/27 06:43:55;;;;;;;26.10;4.35;;;;;;;3.26;100.00;102117.72;5004024;28;20022;-84
2022/12/27 06:46:23;;;;;;;22.77;3.95;;;;;;;3.25;100.00;102123.16;4997235;28;20038;-84
2022/12/27 06:48:50;;;;;;;37.03;4.18;;;;;;;3.22;100.00;102124.13;5004565;28;20120;-83
2022/12/27 06:51:18;;;;;;;15.88;3.20;;;;;;;3.24;100.00;102126.78;4987305;28;20065;-84
2022/12/27 06:53:48;;;;;;;24.23;3.47;;;;;;;3.11;100.00;102119.00;4987326;28;20030;-84
2022/12/27 06:56:16;;;;;;;16.45;3.15;;;;;;;3.15;100.00;102135.16;4971852;28;20030;-84
2022/12/27 06:58:43;;;;;;;17.42;3.35;;;;;;;2.99;100.00;102115.75;4976493;28;20019;-84
2022/12/27 07:01:17;;;;;;;15.75;3.10;;;;;;;3.07;100.00;102141.66;4988729;28;20032;-83
2022/12/27 07:03:48;;;;;;;18.85;4.07;;;;;;;3.13;100.00;102136.09;4971892;28;20034;-83
2022/12/27 07:06:13;;;;;;;27.38;3.97;;;;;;;3.05;100.00;102148.03;4987508;28;20022;-84
2022/12/27 07:08:39;;;;;;;23.92;4.60;;;;;;;3.01;100.00;102147.25;4970461;28;20125;-84
2022/12/27 07:11:11;;;;;;;15.95;4.40;;;;;;;3.00;100.00;102156.31;4982792;28;20038;-83
2022/12/27 07:13:42;;;;;;;26.30;4.65;;;;;;;2.86;100.00;102158.47;4984099;28;20030;-85
2022/12/27 07:16:09;;;;;;;30.50;4.45;;;;;;;2.73;100.00;102144.38;5000493;28;20041;-85
2022/12/27 07:18:35;;;;;;;21.33;4.68;;;;;;;2.75;100.00;102151.53;4985732;28;20065;-84
2022/12/27 07:21:12;;;;;;;25.67;5.10;;;;;;;2.80;100.00;102159.50;4986313;28;20038;-84
2022/12/27 07:23:38;;;;;;;21.33;5.70;;;;;;;2.84;100.00;102163.91;5003037;28;20038;-84
2022/12/27 07:26:08;;;;;;;30.85;6.07;;;;;;;2.77;100.00;102162.28;5005341;28;20029;-85
2022/12/27 07:28:34;;;;;;;19.02;4.90;;;;;;;2.79;100.00;102173.97;4985165;28;20031;-85
2022/12/27 07:31:04;;;;;;;28.52;5.28;;;;;;;2.79;100.00;102173.06;4998048;28;20133;-85
2022/12/27 07:33:30;;;;;;;32.38;6.47;;;;;;;2.60;100.00;102151.03;4999513;28;20042;-85
2022/12/27 07:35:59;;;;;;;18.05;4.53;;;;;;;2.79;100.00;102176.69;5003103;28;20064;-85
2022/12/27 07:38:25;;;;;;;22.63;6.00;;;;;;;2.52;100.00;102146.69;5014475;28;20034;-84
2022/12/27 07:40:50;;;;;;;19.52;5.28;;;;;;;2.65;100.00;102182.41;5001479;28;20038;-85
2022/12/27 07:43:16;;;;;;;16.05;5.60;;;;;;;2.69;100.00;102184.13;5003917;28;20042;-83
2022/12/27 07:45:41;;;;;;;26.27;6.13;;;;;;;2.69;100.00;102164.28;4969690;28;20103;-83
2022/12/27 07:48:07;;;;;;;26.38;5.20;;;;;;;2.72;100.00;102165.13;5011359;28;20062;-83
2022/12/27 07:50:34;;;;;;;21.10;4.88;;;;;;;2.77;100.00;102173.09;4960894;28;20034;-82
2022/12/27 07:52:59;;;;;;;26.90;5.40;;;;;;;2.64;100.00;102148.22;4999927;28;20042;-82
2022/12/27 07:55:25;;;;;;;42.63;5.60;;;;;;;2.88;100.00;102175.53;4966618;28;20030;-84
2022/12/27 07:57:50;;;;;;;28.52;5.35;;;;;;;2.79;100.00;102164.94;4973277;28;20057;-83
2022/12/27 08:00:16;;;;;;;22.23;6.00;;;;;;;2.90;100.00;102179.09;4997727;28;20141;-85
2022/12/27 08:02:42;;;;;;;21.77;5.65;;;;;;;2.75;100.00;102161.44;4969752;28;20038;-84
2022/12/27 08:05:08;;;;;;;23.33;6.78;;;;;;;2.74;100.00;102167.78;5006778;28;20044;-85
2022/12/27 08:07:35;;;;;;;30.85;6.35;;;;;;;2.82;100.00;102176.59;5006532;28;20035;-83
2022/12/27 08:10:01;;;;;;;32.38;7.10;;;;;;;2.97;100.00;102196.03;4970905;28;20034;-84
2022/12/27 08:12:29;;;;;;;20.70;6.18;;;;;;;2.93;100.00;102189.84;4969101;28;20053;-84
2022/12/27 08:14:55;;;;;;;18.38;6.53;;;;;;;3.02;100.00;102192.31;4988752;28;20097;-85
2022/12/27 08:17:26;;;;;;;17.90;5.65;;;;;;;3.00;100.00;102183.34;4981196;28;20027;-84
2022/12/27 08:19:53;;;;;;;24.77;6.15;;;;;;;3.17;100.00;102192.84;5010269;28;20030;-83
2022/12/27 08:22:29;;;;;;;19.80;6.40;;;;;;;3.20;100.00;102192.75;5001649;28;20512;-83
2022/12/27 08:24:55;;;;;;;42.20;6.35;;;;;;;3.27;100.00;102197.94;5001352;28;20042;-85
2022/12/27 08:27:24;;;;;;;22.55;5.07;;;;;;;3.29;100.00;102203.31;4969617;28;20046;-84
2022/12/27 08:29:49;;;;;;;22.40;4.38;;;;;;;3.28;100.00;102198.84;4981989;28;20034;-83
2022/12/27 08:32:18;;;;;;;19.30;5.70;;;;;;;3.35;100.00;102196.88;4978793;28;20081;-83
2022/12/27 08:34:47;;;;;;;27.98;5.20;;;;;;;3.33;100.00;102198.72;4990482;28;20060;-84
2022/12/27 08:37:14;;;;;;;24.17;5.93;;;;;;;3.31;100.00;102201.47;4958155;28;20031;-84
2022/12/27 08:39:40;;;;;;;25.13;5.43;;;;;;;3.23;100.00;102196.28;4996302;28;20037;-84
2022/12/27 08:42:06;;;;;;;30.10;5.70;;;;;;;3.29;100.00;102197.91;4986443;28;20034;-83
2022/12/27 08:44:31;;;;;;;23.50;5.60;;;;;;;3.34;100.00;102201.38;4984090;28;20098;-83
2022/12/27 08:46:58;;;;;;;23.05;5.55;;;;;;;3.41;100.00;102219.25;4951581;28;20133;-85
2022/12/27 08:49:23;;;;;;;22.23;6.65;;;;;;;3.41;100.00;102210.22;4982473;28;20472;-83
2022/12/27 08:51:49;;;;;;;20.40;5.30;;;;;;;3.41;100.00;102205.72;5000443;28;20034;-85
2022/12/27 08:54:16;;;;;;;17.65;4.90;;;;;;;3.49;100.00;102210.91;5001373;28;20397;-82
2022/12/27 08:56:42;;;;;;;21.95;5.93;;;;;;;3.53;100.00;102196.38;4997750;28;20046;-82
2022/12/27 08:59:07;;;;;;;22.23;6.18;;;;;;;3.54;100.00;102205.34;4965316;28;20046;-81
2022/12/27 09:01:33;;;;;;;16.98;4.93;;;;;;;3.61;100.00;102207.00;4965397;28;20035;-85
2022/12/27 09:03:59;;;;;;;30.00;6.10;;;;;;;3.62;100.00;102196.13;4983118;28;20018;-82
2022/12/27 09:06:26;;;;;;;24.85;6.13;;;;;;;3.73;100.00;102197.63;4982640;28;20073;-81
2022/12/27 09:08:53;;;;;;;23.17;5.93;;;;;;;3.79;100.00;102198.31;4961821;28;20053;-81
2022/12/27 09:11:25;;;;;;;19.85;5.47;;;;;;;3.83;100.00;102199.13;4976093;28;20034;-79
2022/12/27 09:13:51;;;;;;;30.58;7.10;;;;;;;3.79;100.00;102198.31;4980598;28;20022;-82
2022/12/27 09:16:23;;;;;;;37.22;8.60;;;;;;;3.64;100.00;102177.06;5000443;28;20038;-83
2022/12/27 09:18:51;;;;;;;33.72;6.75;;;;;;;3.81;100.00;102192.88;4996520;28;20082;-83
2022/12/27 09:21:19;;;;;;;29.63;5.97;;;;;;;3.96;100.00;102202.34;4979282;28;20034;-81
2022/12/27 09:23:45;;;;;;;20.40;5.80;;;;;;;3.99;100.00;102196.84;5001709;28;20069;-81
2022/12/27 09:26:15;;;;;;;15.90;6.07;;;;;;;4.02;100.00;102192.22;4970363;28;20035;-82
2022/12/27 09:28:41;;;;;;;28.40;5.75;;;;;;;4.16;100.00;102197.22;4998422;28;20065;-82
2022/12/27 09:31:10;;;;;;;18.25;5.45;;;;;;;4.26;100.00;102210.50;5000355;28;20034;-81
2022/12/27 09:33:36;;;;;;;32.50;6.72;;;;;;;4.27;100.00;102205.03;5002475;28;20045;-81
2022/12/27 09:36:04;;;;;;;24.88;5.68;;;;;;;4.19;100.00;102216.09;4965189;28;20038;-81
2022/12/27 09:38:30;;;;;;;19.70;5.78;;;;;;;4.28;100.00;102216.75;4982303;28;20026;-82
2022/12/27 09:40:59;;;;;;;27.65;6.93;;;;;;;4.34;100.00;102203.88;4998902;28;20025;-83
2022/12/27 09:43:43;;;;;;;24.63;7.15;;;;;;;4.46;100.00;102213.47;5000585;28;20113;-84
2022/12/27 09:46:24;;;;;;;29.25;6.40;;;;;;;4.77;100.00;102218.81;4997886;28;20054;-80
2022/12/27 09:48:54;;;;;;;36.17;6.65;;;;;;;5.07;100.00;102226.84;4976889;28;20046;-84
2022/12/27 09:51:26;;;;;;;28.67;6.70;;;;;;;5.21;100.00;102210.06;4980668;28;20100;-80
2022/12/27 09:54:13;;;;;;;26.48;6.90;;;;;;;5.06;100.00;102214.22;4974880;28;20076;-84
2022/12/27 09:56:39;;;;;;;21.55;6.68;;;;;;;5.21;100.00;102236.34;4996826;28;20066;-83
2022/12/27 09:59:29;;;;;;;25.58;6.43;;;;;;;5.47;100.00;102230.00;4958045;28;20035;-81
2022/12/27 10:01:55;;;;;;;23.35;6.25;;;;;;;5.40;100.00;102228.47;4997408;28;20037;-82
2022/12/27 10:04:20;;;;;;;29.38;6.55;;;;;;;5.47;100.00;102227.28;4984419;28;20413;-82
2022/12/27 10:06:49;;;;;;;16.65;4.95;;;;;;;5.34;100.00;102233.19;4984817;28;20041;-81
2022/12/27 10:09:29;;;;;;;24.75;5.78;;;;;;;5.46;100.00;102236.38;5001059;28;20030;-82
2022/12/27 10:12:23;;;;;;;21.67;5.70;;;;;;;5.56;100.00;102226.97;4985133;28;20030;-82
2022/12/27 10:15:13;;;;;;;17.23;5.55;;;;;;;5.76;100.00;102223.53;4981711;28;20043;-82
2022/12/27 10:18:00;;;;;;;24.27;6.10;;;;;;;5.76;100.00;102217.22;4994863;28;20045;-81
2022/12/27 10:20:58;;;;;;;24.95;5.05;;;;;;;5.91;100.00;102207.59;5000717;28;20094;-83
2022/12/27 10:23:36;;;;;;;21.90;5.80;;;;;;;5.95;100.00;102223.75;4998536;28;20042;-83
2022/12/27 10:26:11;;;;;;;20.23;5.47;;;;;;;6.37;100.00;102223.03;4981024;28;20042;-82
2022/12/27 10:28:36;;;;;;;27.42;6.15;;;;;;;6.28;100.00;102226.16;5000322;28;20109;-81
2022/12/27 10:31:03;;;;;;;19.92;5.57;;;;;;;6.49;100.00;102227.09;5002447;28;20038;-82
2022/12/27 10:33:31;;;;;;;21.85;5.13;;;;;;;6.75;100.00;102220.59;5002012;28;20038;-81
2022/12/27 10:35:57;;;;;;;19.77;5.85;;;;;;;6.60;100.00;102234.84;4994002;28;20117;-82
2022/12/27 10:38:30;;;;;;;20.90;5.22;;;;;;;6.65;100.00;102232.81;5000451;28;20095;-83
2022/12/27 10:41:11;;;;;;;29.38;5.57;;;;;;;6.89;100.00;102228.22;4983323;28;20031;-82
2022/12/27 10:43:40;;;;;;;14.63;4.55;;;;;;;6.76;100.00;102227.84;4999381;28;20050;-82
2022/12/27 10:46:25;;;;;;;17.67;4.97;;;;;;;6.96;100.00;102215.22;5002431;28;20097;-82
2022/12/27 10:49:04;;;;;;;22.63;5.25;;;;;;;7.00;100.00;102214.13;4968613;28;20043;-82
2022/12/27 10:51:40;;;;;;;12.30;4.95;;;;;;;7.05;100.00;102214.84;5001482;28;20030;-82
2022/12/27 10:54:08;;;;;;;12.18;4.10;;;;;;;7.21;100.00;102214.19;4986612;28;20034;-81
2022/12/27 10:56:38;;;;;;;13.30;4.60;;;;;;;7.02;100.00;102211.34;4998926;28;20520;-82
2022/12/27 10:59:06;;;;;;;11.32;4.47;;;;;;;6.96;100.00;102209.78;4999404;28;20393;-82
2022/12/27 11:01:32;;;;;;;13.38;2.92;;;;;;;6.90;100.00;102202.75;4982979;28;20482;-80
2022/12/27 11:04:13;;;;;;;13.23;3.83;;;;;;;7.03;100.00;102202.25;4997442;28;20036;-80
2022/12/27 11:06:40;;;;;;;16.08;3.83;;;;;;;7.04;100.00;102210.34;4998565;28;20397;-81
2022/12/27 11:09:21;;;;;;;16.33;4.80;;;;;;;7.07;100.00;102212.94;4998372;28;20023;-83
2022/12/27 11:11:47;;;;;;;14.93;4.25;;;;;;;6.87;100.00;102211.06;4999422;28;20038;-81
2022/12/27 11:14:17;;;;;;;20.30;4.10;;;;;;;6.89;100.00;102219.19;4999825;28;20478;-81
2022/12/27 11:16:50;;;;;;;24.98;4.80;;;;;;;6.88;100.00;102228.28;4998632;28;20481;-82
2022/12/27 11:19:26;;;;;;;23.20;5.10;;;;;;;6.71;100.00;102218.97;4997690;28;20102;-81
2022/12/27 11:21:54;;;;;;;18.88;4.75;;;;;;;6.62;100.00;102208.44;4994366;28;20700;-82
2022/12/27 11:24:23;;;;;;;20.48;4.97;;;;;;;6.58;100.00;102201.38;4996889;28;20027;-81
2022/12/27 11:26:56;;;;;;;16.75;3.92;;;;;;;6.51;100.00;102208.91;4999623;28;20429;-82
2022/12/27 11:29:25;;;;;;;13.38;4.47;;;;;;;6.59;100.00;102200.41;4999633;28;20038;-81
2022/12/27 11:31:52;;;;;;;20.42;4.75;;;;;;;6.65;100.00;102205.59;4966243;28;20508;-80
2022/12/27 11:34:27;;;;;;;14.45;4.60;;;;;;;6.66;100.00;102207.41;4998869;28;20045;-81
2022/12/27 11:37:01;;;;;;;13.05;5.10;;;;;;;6.67;100.00;102206.44;4999524;28;20117;-81
2022/12/27 11:39:36;;;;;;;26.02;5.50;;;;;;;6.74;100.00;102201.63;4998717;28;20045;-82
2022/12/27 11:42:03;;;;;;;25.00;4.93;;;;;;;6.66;100.00;102209.22;4998037;28;20044;-80
2022/12/27 11:44:35;;;;;;;20.65;5.35;;;;;;;6.78;100.00;102206.88;4997396;28;20385;-81
2022/12/27 11:47:09;;;;;;;29.85;5.72;;;;;;;6.73;100.00;102206.19;4999171;28;20097;-82
2022/12/27 11:49:39;;;;;;;17.67;4.82;;;;;;;6.87;100.00;102200.19;4998602;28;20449;-82
2022/12/27 11:52:26;;;;;;;13.40;4.13;;;;;;;6.84;100.00;102193.94;4999795;28;20044;-82
2022/12/27 11:55:03;;;;;;;12.38;3.90;;;;;;;6.77;100.00;102199.69;4992089;28;20524;-81
2022/12/27 11:57:51;;;;;;;17.00;4.55;;;;;;;6.78;100.00;102192.38;5013446;28;20069;-81
2022/12/27 12:00:25;;;;;;;17.15;4.18;;;;;;;6.83;100.00;102190.34;4995471;28;20046;-81
2022/12/27 12:03:23;;;;;;;17.55;4.00;;;;;;;6.86;100.00;102192.06;4995701;28;20023;-81
2022/12/27 12:06:10;;;;;;;12.10;3.80;;;;;;;6.83;100.00;102194.91;4981841;28;20077;-81
2022/12/27 12:08:55;;;;;;;14.95;3.90;;;;;;;6.82;100.00;102188.56;4982190;28;20037;-82
2022/12/27 12:11:43;;;;;;;10.95;3.63;;;;;;;6.79;100.00;102186.88;4998983;28;20117;-82
2022/12/27 12:14:12;;;;;;;20.83;4.55;;;;;;;6.77;100.00;102183.34;4998987;28;20022;-81
2022/12/27 12:16:56;;;;;;;15.07;4.28;;;;;;;6.70;100.00;102183.66;5002534;28;20040;-81
2022/12/27 12:19:50;;;;;;;19.70;4.90;;;;;;;6.71;100.00;102175.44;4997709;28;20042;-83
2022/12/27 12:22:28;;;;;;;20.00;4.47;;;;;;;6.60;100.00;102164.97;4991747;28;20054;-82
2022/12/27 12:25:25;;;;;;;12.52;3.60;;;;;;;6.63;100.00;102155.81;4998015;28;20069;-80
2022/12/27 12:28:09;;;;;;;13.60;3.33;;;;;;;6.60;100.00;102151.38;4980248;28;20038;-81
2022/12/27 12:30:54;;;;;;;6.57;2.65;;;;;;;6.62;100.00;102157.66;4997662;28;20213;-81
2022/12/27 12:33:23;;;;;;;16.67;3.00;;;;;;;6.64;100.00;102152.16;4998078;28;20073;-81
2022/12/27 12:36:30;;;;;;;10.52;2.90;;;;;;;6.69;100.00;102149.22;4997781;28;20026;-81
2022/12/27 12:39:14;;;;;;;19.10;3.22;;;;;;;6.70;100.00;102149.16;4982640;28;20043;-81
2022/12/27 12:41:54;;;;;;;8.32;3.00;;;;;;;6.68;100.00;102150.19;4995136;28;20034;-81
2022/12/27 12:45:05;;;;;;;14.20;3.55;;;;;;;6.74;100.00;102153.53;4990513;28;20035;-81
2022/12/27 12:48:07;;;;;;;17.27;3.40;;;;;;;6.69;100.00;102155.56;4986053;28;20044;-81
2022/12/27 12:50:53;;;;;;;20.00;4.30;;;;;;;6.72;100.00;102146.38;4997404;28;20042;-82
2022/12/27 12:53:40;;;;;;;10.98;4.03;;;;;;;6.69;100.00;102144.69;5000781;28;20297;-82
2022/12/27 12:56:33;;;;;;;14.95;3.70;;;;;;;6.68;100.00;102134.72;5002491;28;20398;-80
2022/12/27 12:59:33;;;;;;;13.65;3.88;;;;;;;6.69;100.00;102122.00;4999928;28;20037;-81
2022/12/27 13:02:23;;;;;;;8.77;3.10;;;;;;;6.60;100.00;102126.00;4982868;28;20113;-82
2022/12/27 13:04:57;;;;;;;14.93;3.50;;;;;;;6.63;100.00;102123.16;4991312;28;20053;-80
2022/12/27 13:07:36;;;;;;;10.75;3.40;;;;;;;6.57;100.00;102115.25;4996068;28;20041;-82
2022/12/27 13:10:29;;;;;;;15.57;3.72;;;;;;;6.61;100.00;102109.59;5003156;28;20066;-82
2022/12/27 13:13:13;;;;;;;12.45;3.75;;;;;;;6.59;100.00;102107.88;5000553;28;20031;-81
2022/12/27 13:15:48;;;;;;;13.30;4.32;;;;;;;6.62;100.00;102091.44;4981749;28;20534;-80